Time;durP1;ratioP1;P1;durP2;ratioP2;P2;SDS_P1;SDS_P2;PMS_P1;PMS_P2;Temp;Humidity;BMP_temperature;BMP_pressure;BME280_temperature;BME280_humidity;BME280_pressure;Samples;Min_cycle;Max_cycle;Signal;HPM_P1;HPM_P2
2023/03/17 00:00:21;;;;;;;0.85;0.85;;;;;;;0.30;87.38;99384.56;4993216;28;20046;-80
2023/03/17 00:02:48;;;;;;;1.00;1.00;;;;;;;0.30;87.31;99389.06;4993021;28;20052;-79
2023/03/17 00:05:19;;;;;;;0.90;0.90;;;;;;;0.31;87.29;99396.06;4993588;28;20054;-82
2023/03/17 00:07:46;;;;;;;0.90;0.90;;;;;;;0.30;87.28;99386.41;4975845;28;20054;-82
2023/03/17 00:10:22;;;;;;;0.82;0.82;;;;;;;0.26;86.98;99393.91;4973445;28;20736;-80
2023/03/17 00:12:54;;;;;;;0.90;0.90;;;;;;;0.25;86.97;99381.59;4973482;28;20047;-82
2023/03/17 00:15:22;;;;;;;0.80;0.80;;;;;;;0.27;87.06;99389.41;4956392;28;20415;-80
2023/03/17 00:17:49;;;;;;;0.88;0.88;;;;;;;0.24;86.88;99395.06;4955757;28;20081;-79
2023/03/17 00:20:30;;;;;;;0.90;0.90;;;;;;;0.22;86.97;99381.94;4973247;28;20418;-79
2023/03/17 00:22:59;;;;;;;0.77;0.77;;;;;;;0.20;87.06;99394.56;4955989;28;20054;-80
2023/03/17 00:25:28;;;;;;;0.70;0.70;;;;;;;0.21;87.16;99398.88;4973168;28;20055;-79
2023/03/17 00:27:57;;;;;;;0.80;0.80;;;;;;;0.21;87.20;99399.72;4972992;28;20043;-80
2023/03/17 00:30:26;;;;;;;0.73;0.73;;;;;;;0.21;87.08;99397.06;4973244;28;20081;-80
2023/03/17 00:32:56;;;;;;;0.80;0.80;;;;;;;0.21;87.03;99386.44;4973092;28;20097;-79
2023/03/17 00:35:27;;;;;;;0.90;0.90;;;;;;;0.22;87.05;99395.22;4973017;28;20530;-79
2023/03/17 00:37:56;;;;;;;0.90;0.90;;;;;;;0.21;86.63;99378.47;4973151;28;20051;-79
2023/03/17 00:40:28;;;;;;;1.00;1.00;;;;;;;0.16;86.68;99383.47;4973036;28;20059;-78
2023/03/17 00:42:57;;;;;;;0.90;0.90;;;;;;;0.14;86.74;99385.44;4973072;28;20051;-80
2023/03/17 00:45:25;;;;;;;0.80;0.80;;;;;;;0.10;86.87;99391.25;4973345;28;20053;-79
2023/03/17 00:47:54;;;;;;;0.90;0.90;;;;;;;0.10;87.00;99391.25;4972787;28;20485;-79
2023/03/17 00:50:25;;;;;;;0.90;0.90;;;;;;;0.11;86.99;99412.31;4958374;28;20047;-79
2023/03/17 00:52:55;;;;;;;0.90;0.90;;;;;;;0.15;87.13;99412.81;4992227;28;20058;-80
2023/03/17 00:55:25;;;;;;;0.80;0.80;;;;;;;0.17;87.16;99414.28;4992352;28;20425;-79
2023/03/17 00:57:53;;;;;;;0.80;0.80;;;;;;;0.16;87.33;99406.53;4974935;28;20616;-79
2023/03/17 01:00:28;;;;;;;0.90;0.90;;;;;;;0.18;87.02;99415.16;4990743;28;20090;-79
2023/03/17 01:02:56;;;;;;;0.98;0.98;;;;;;;0.18;87.18;99415.16;4982678;28;20141;-79
2023/03/17 01:05:24;;;;;;;0.90;0.90;;;;;;;0.16;86.98;99425.09;4974798;28;20089;-79
2023/03/17 01:07:56;;;;;;;0.77;0.77;;;;;;;0.18;87.03;99423.13;4991046;28;20513;-79
2023/03/17 01:10:26;;;;;;;0.80;0.80;;;;;;;0.20;86.75;99442.34;4991858;28;20046;-79
2023/03/17 01:12:57;;;;;;;0.90;0.90;;;;;;;0.18;86.72;99449.66;4991979;28;20160;-79
2023/03/17 01:15:30;;;;;;;1.00;1.00;;;;;;;0.21;86.73;99459.94;4992206;28;20453;-79
2023/03/17 01:18:00;;;;;;;0.80;0.80;;;;;;;0.23;86.70;99457.94;4974654;28;20102;-80
2023/03/17 01:20:31;;;;;;;0.90;0.90;;;;;;;0.26;86.47;99468.22;4974409;28;20073;-79
2023/03/17 01:23:00;;;;;;;0.90;0.90;;;;;;;0.22;86.40;99467.72;4974073;28;20050;-79
2023/03/17 01:25:27;;;;;;;0.90;0.90;;;;;;;0.22;86.14;99485.47;4974367;28;20746;-78
2023/03/17 01:27:59;;;;;;;0.90;0.90;;;;;;;0.19;86.42;99473.38;4974469;28;20054;-79
2023/03/17 01:30:37;;;;;;;0.90;0.90;;;;;;;0.20;86.38;99472.38;4991493;28;20038;-79
2023/03/17 01:33:07;;;;;;;0.80;0.80;;;;;;;0.19;86.08;99483.97;4974536;28;20418;-80
2023/03/17 01:35:35;;;;;;;0.90;0.90;;;;;;;0.17;86.00;99478.00;4991487;28;20050;-80
2023/03/17 01:38:03;;;;;;;0.90;0.90;;;;;;;0.18;86.10;99486.81;4991462;28;20824;-80
2023/03/17 01:40:36;;;;;;;0.80;0.80;;;;;;;0.16;86.11;99489.63;4991413;28;20046;-80
2023/03/17 01:43:16;;;;;;;0.90;0.90;;;;;;;0.16;86.15;99486.97;4991676;28;20057;-79
2023/03/17 01:46:23;;;;;;;0.80;0.80;;;;;;;0.17;86.13;99495.75;4991135;28;20100;-79
2023/03/17 01:49:14;;;;;;;0.80;0.80;;;;;;;0.16;86.27;99502.91;4971597;28;20528;-79
2023/03/17 01:52:13;;;;;;;0.90;0.90;;;;;;;0.20;86.38;99508.69;4954676;28;20061;-79
2023/03/17 01:54:55;;;;;;;0.80;0.80;;;;;;;0.17;86.27;99525.78;4956441;28;20055;-79
2023/03/17 01:57:27;;;;;;;0.80;0.80;;;;;;;0.16;86.06;99520.66;4957950;28;20413;-79
2023/03/17 02:00:01;;;;;;;1.00;1.00;;;;;;;0.14;86.14;99523.47;4972731;28;20097;-80
2023/03/17 02:02:44;;;;;;;1.00;1.00;;;;;;;0.17;86.12;99525.78;4975504;28;20050;-80
2023/03/17 02:05:15;;;;;;;0.82;0.82;;;;;;;0.17;86.11;99533.75;4991118;28;20402;-80
2023/03/17 02:07:44;;;;;;;0.75;0.75;;;;;;;0.16;85.94;99540.06;4957577;28;20112;-79
2023/03/17 02:10:12;;;;;;;0.80;0.80;;;;;;;0.13;85.76;99542.22;4990774;28;20073;-80
2023/03/17 02:12:41;;;;;;;0.90;0.90;;;;;;;0.10;85.81;99547.84;4991063;28;20085;-80
2023/03/17 02:15:09;;;;;;;0.80;0.80;;;;;;;0.09;85.79;99551.50;4991335;28;20057;-79
2023/03/17 02:17:56;;;;;;;0.90;0.90;;;;;;;0.07;85.65;99558.78;4976293;28;20066;-80
2023/03/17 02:20:23;;;;;;;0.85;0.85;;;;;;;0.07;85.31;99561.44;4974475;28;20521;-79
2023/03/17 02:22:53;;;;;;;0.93;0.93;;;;;;;0.09;85.51;99567.44;4994703;28;20043;-79
2023/03/17 02:25:22;;;;;;;0.90;0.90;;;;;;;0.05;85.15;99561.63;4977905;28;20501;-79
2023/03/17 02:27:56;;;;;;;0.90;0.90;;;;;;;0.06;84.92;99570.41;4994557;28;20141;-79
2023/03/17 02:30:24;;;;;;;0.80;0.80;;;;;;;0.04;84.65;99575.88;4977365;28;20059;-80
2023/03/17 02:32:51;;;;;;;0.90;0.90;;;;;;;0.04;84.81;99575.06;4977008;28;20038;-80
2023/03/17 02:35:21;;;;;;;0.90;0.90;;;;;;;0.02;84.44;99583.16;4994455;28;20560;-80
2023/03/17 02:37:48;;;;;;;0.95;0.95;;;;;;;0.03;84.35;99586.66;4994515;28;20524;-80
2023/03/17 02:40:15;;;;;;;0.90;0.90;;;;;;;0.02;84.35;99595.59;4994677;28;20108;-78
2023/03/17 02:42:42;;;;;;;0.88;0.88;;;;;;;0.02;83.77;99598.25;4994314;28;20469;-78
2023/03/17 02:45:11;;;;;;;0.80;0.80;;;;;;;0.01;83.88;99600.09;4994592;28;20054;-79
2023/03/17 02:47:38;;;;;;;0.90;0.90;;;;;;;0.01;83.46;99593.97;4993946;28;20058;-78
2023/03/17 02:50:07;;;;;;;0.88;0.88;;;;;;;0.02;83.36;99598.25;4994257;28;20054;-79
2023/03/17 02:52:34;;;;;;;1.02;1.02;;;;;;;-0.02;83.21;99598.59;4994257;28;20050;-80
2023/03/17 02:55:01;;;;;;;0.90;0.90;;;;;;;-0.03;83.02;99604.88;4993870;28;20050;-79
2023/03/17 02:57:28;;;;;;;0.90;0.90;;;;;;;-0.02;83.07;99592.47;4994340;28;20046;-79
2023/03/17 02:59:55;;;;;;;1.00;1.00;;;;;;;-0.06;82.73;99602.53;4993912;28;20073;-79
2023/03/17 03:02:22;;;;;;;0.93;0.93;;;;;;;-0.06;82.39;99613.16;4994216;28;20054;-79
2023/03/17 03:04:49;;;;;;;0.90;0.90;;;;;;;-0.10;82.37;99611.84;4993801;28;20140;-80
2023/03/17 03:07:16;;;;;;;0.90;0.90;;;;;;;-0.10;82.54;99613.63;4993852;28;20141;-79
2023/03/17 03:09:44;;;;;;;0.80;0.80;;;;;;;-0.11;82.46;99622.59;4993382;28;20062;-80
2023/03/17 03:12:12;;;;;;;0.80;0.80;;;;;;;-0.10;82.62;99626.91;4993910;28;20046;-80
2023/03/17 03:14:39;;;;;;;0.88;0.88;;;;;;;-0.11;82.63;99627.91;4976582;28;20048;-80
2023/03/17 03:17:08;;;;;;;0.80;0.80;;;;;;;-0.10;82.53;99629.56;4994200;28;20050;-80
2023/03/17 03:19:35;;;;;;;0.80;0.80;;;;;;;-0.12;82.08;99621.78;4993830;28;20065;-80
2023/03/17 03:22:02;;;;;;;0.90;0.90;;;;;;;-0.11;81.55;99630.56;4993692;28;20109;-80
2023/03/17 03:24:29;;;;;;;0.93;0.93;;;;;;;-0.14;81.45;99634.38;4976663;28;20051;-79
2023/03/17 03:26:56;;;;;;;0.80;0.80;;;;;;;-0.17;81.07;99631.22;4975965;28;20062;-81
2023/03/17 03:29:23;;;;;;;0.90;0.90;;;;;;;-0.18;80.81;99629.53;4993641;28;20057;-80
2023/03/17 03:31:50;;;;;;;0.90;0.90;;;;;;;-0.20;80.76;99628.84;4993471;28;20050;-80
2023/03/17 03:34:17;;;;;;;0.90;0.90;;;;;;;-0.21;80.84;99636.00;4994671;28;20065;-81
2023/03/17 03:36:44;;;;;;;0.90;0.90;;;;;;;-0.23;80.64;99645.94;4993919;28;20120;-82
2023/03/17 03:39:12;;;;;;;0.70;0.70;;;;;;;-0.21;80.44;99657.22;4994383;28;20458;-82
2023/03/17 03:41:40;;;;;;;0.80;0.80;;;;;;;-0.21;80.31;99651.91;4993456;28;20046;-82
2023/03/17 03:44:07;;;;;;;0.82;0.82;;;;;;;-0.21;79.94;99662.53;4994421;28;20074;-83
2023/03/17 03:46:34;;;;;;;0.90;0.90;;;;;;;-0.19;79.62;99667.69;4993478;28;20133;-84
2023/03/17 03:49:01;;;;;;;0.95;0.95;;;;;;;-0.22;79.24;99669.66;4994014;28;20050;-82
2023/03/17 03:51:28;;;;;;;1.00;1.00;;;;;;;-0.22;79.08;99679.44;4993457;28;20057;-80
2023/03/17 03:53:55;;;;;;;0.95;0.95;;;;;;;-0.23;78.70;99683.91;4993274;28;20050;-79
2023/03/17 03:56:22;;;;;;;1.00;1.00;;;;;;;-0.23;78.50;99683.06;4993089;28;20057;-80
2023/03/17 03:58:50;;;;;;;0.80;0.80;;;;;;;-0.22;78.08;99688.22;4992732;28;20555;-81
2023/03/17 04:01:17;;;;;;;0.90;0.90;;;;;;;-0.19;77.91;99683.59;4993047;28;20042;-82
2023/03/17 04:03:46;;;;;;;0.77;0.77;;;;;;;-0.22;78.01;99693.53;4993005;28;20062;-83
2023/03/17 04:06:13;;;;;;;0.90;0.90;;;;;;;-0.19;77.74;99692.38;4993280;28;20053;-82
2023/03/17 04:08:41;;;;;;;0.90;0.90;;;;;;;-0.18;77.60;99701.16;4975029;28;20407;-81
2023/03/17 04:11:09;;;;;;;0.98;0.98;;;;;;;-0.20;76.94;99701.34;4959432;28;20112;-80
2023/03/17 04:13:36;;;;;;;1.00;1.00;;;;;;;-0.20;76.67;99709.31;4993018;28;20085;-81
2023/03/17 04:16:03;;;;;;;0.90;0.90;;;;;;;-0.23;76.55;99699.84;4992898;28;20140;-82
2023/03/17 04:18:31;;;;;;;1.00;1.00;;;;;;;-0.19;76.42;99713.59;4992460;28;20050;-83
2023/03/17 04:20:58;;;;;;;0.80;0.80;;;;;;;-0.19;76.11;99703.00;4991914;28;20061;-80
2023/03/17 04:23:25;;;;;;;1.00;1.00;;;;;;;-0.17;75.25;99716.94;4992016;28;20061;-80
2023/03/17 04:25:52;;;;;;;0.90;0.90;;;;;;;-0.15;75.02;99720.28;4992082;28;20137;-79
2023/03/17 04:28:20;;;;;;;0.80;0.80;;;;;;;-0.13;74.77;99720.91;4992557;28;20089;-80
2023/03/17 04:30:48;;;;;;;0.90;0.90;;;;;;;-0.12;74.47;99724.44;4992246;28;20050;-78
2023/03/17 04:33:15;;;;;;;0.80;0.80;;;;;;;-0.11;74.07;99737.53;4992007;28;20537;-80
2023/03/17 04:35:42;;;;;;;0.90;0.90;;;;;;;-0.11;73.82;99737.53;4975983;28;20054;-79
2023/03/17 04:38:12;;;;;;;0.95;0.95;;;;;;;-0.07;73.57;99748.66;4992117;28;20575;-80
2023/03/17 04:40:39;;;;;;;1.00;1.00;;;;;;;-0.05;73.25;99751.97;4991483;28;20050;-79
2023/03/17 04:43:06;;;;;;;0.80;0.80;;;;;;;-0.02;73.24;99768.44;4990605;28;20048;-81
2023/03/17 04:45:33;;;;;;;0.90;0.90;;;;;;;0.03;73.11;99777.75;4991705;28;20046;-81
2023/03/17 04:48:00;;;;;;;1.00;1.00;;;;;;;0.04;73.00;99772.28;4990964;28;20049;-79
2023/03/17 04:50:27;;;;;;;0.95;0.95;;;;;;;0.08;72.72;99767.50;4974269;28;20093;-80
2023/03/17 04:52:55;;;;;;;0.90;0.90;;;;;;;0.08;72.12;99765.66;4991502;28;20425;-80
2023/03/17 04:55:22;;;;;;;0.90;0.90;;;;;;;0.08;71.98;99772.81;4991509;28;20046;-80
2023/03/17 04:57:49;;;;;;;0.80;0.80;;;;;;;0.14;71.67;99773.00;4991230;28;20056;-81
2023/03/17 05:00:17;;;;;;;0.98;0.98;;;;;;;0.16;71.07;99771.00;4974003;28;20055;-81
2023/03/17 05:02:43;;;;;;;0.90;0.90;;;;;;;0.16;70.40;99778.16;4973626;28;20042;-81
2023/03/17 05:05:11;;;;;;;0.80;0.80;;;;;;;0.15;70.07;99789.75;4991544;28;20046;-80
2023/03/17 05:07:39;;;;;;;1.00;1.00;;;;;;;0.20;70.00;99803.38;4993147;28;20102;-79
2023/03/17 05:10:06;;;;;;;0.90;0.90;;;;;;;0.21;69.81;99805.06;4995459;28;20054;-80
2023/03/17 05:12:33;;;;;;;0.80;0.80;;;;;;;0.24;69.83;99814.53;4993702;28;20042;-80
2023/03/17 05:15:00;;;;;;;0.80;0.80;;;;;;;0.26;69.62;99825.81;4660144;28;10000658;-79
2023/03/17 05:17:32;;;;;;;0.90;0.90;;;;;;;0.26;69.47;99823.16;5007213;28;20493;-80
2023/03/17 05:19:59;;;;;;;0.95;0.95;;;;;;;0.25;69.44;99824.13;4957195;28;20054;-81
2023/03/17 05:22:26;;;;;;;0.98;0.98;;;;;;;0.26;69.21;99834.63;5007344;28;20419;-79
2023/03/17 05:24:53;;;;;;;0.80;0.80;;;;;;;0.26;69.48;99831.97;5006735;28;20053;-81
2023/03/17 05:27:20;;;;;;;0.90;0.90;;;;;;;0.29;69.15;99834.28;5007432;28;20104;-81
2023/03/17 05:29:48;;;;;;;0.90;0.90;;;;;;;0.28;68.80;99826.47;5006884;28;20057;-80
2023/03/17 05:32:15;;;;;;;1.00;1.00;;;;;;;0.26;68.39;99836.44;4999578;28;20050;-81
2023/03/17 05:34:43;;;;;;;0.90;0.90;;;;;;;0.30;67.92;99840.44;4987537;28;20044;-78
2023/03/17 05:37:11;;;;;;;0.90;0.90;;;;;;;0.29;67.59;99842.25;4987204;28;20043;-80
2023/03/17 05:39:39;;;;;;;0.80;0.80;;;;;;;0.29;66.59;99852.06;4980674;28;20055;-79
2023/03/17 05:42:07;;;;;;;0.90;0.90;;;;;;;0.25;66.66;99858.66;4974885;28;20077;-79
2023/03/17 05:44:34;;;;;;;0.90;0.90;;;;;;;0.25;66.59;99863.97;4971852;28;20051;-77
2023/03/17 05:47:01;;;;;;;0.80;0.80;;;;;;;0.25;66.62;99853.34;4977565;28;20050;-80
2023/03/17 05:49:28;;;;;;;0.90;0.90;;;;;;;0.25;66.16;99858.66;4966340;28;20153;-82
2023/03/17 05:51:55;;;;;;;0.98;0.98;;;;;;;0.27;66.00;99868.13;4978373;28;20109;-81
2023/03/17 05:54:23;;;;;;;0.90;0.90;;;;;;;0.33;66.10;99866.66;4969211;28;20137;-82
2023/03/17 05:56:50;;;;;;;0.90;0.90;;;;;;;0.40;65.89;99873.84;4969700;28;20118;-84
2023/03/17 05:59:17;;;;;;;1.00;1.00;;;;;;;0.40;65.18;99871.19;4978986;28;20054;-82
2023/03/17 06:01:44;;;;;;;0.90;0.90;;;;;;;0.41;64.78;99870.22;4969092;28;20050;-83
2023/03/17 06:04:11;;;;;;;0.80;0.80;;;;;;;0.43;64.69;99878.84;4980336;28;20580;-82
2023/03/17 06:06:38;;;;;;;0.90;0.90;;;;;;;0.49;64.03;99884.53;4982699;28;20506;-81
2023/03/17 06:09:05;;;;;;;0.90;0.90;;;;;;;0.50;63.94;99883.53;4976789;28;20047;-83
2023/03/17 06:11:33;;;;;;;0.90;0.90;;;;;;;0.50;63.21;99880.88;4968926;28;20516;-81
2023/03/17 06:14:00;;;;;;;0.77;0.77;;;;;;;0.51;63.30;99886.03;4937753;28;20516;-84
2023/03/17 06:16:29;;;;;;;1.00;1.00;;;;;;;0.56;63.12;99889.06;4985542;28;20409;-83
2023/03/17 06:18:56;;;;;;;0.90;0.90;;;;;;;0.61;63.07;99875.31;4983293;28;20145;-82
2023/03/17 06:21:23;;;;;;;0.82;0.82;;;;;;;0.70;62.42;99879.63;4977229;28;20053;-84
2023/03/17 06:23:50;;;;;;;0.93;0.93;;;;;;;0.72;61.61;99882.16;4976790;28;20047;-82
2023/03/17 06:26:17;;;;;;;0.90;0.90;;;;;;;0.81;61.62;99891.81;4968088;28;20498;-82
2023/03/17 06:28:45;;;;;;;1.00;1.00;;;;;;;0.90;61.04;99882.06;4974903;28;20056;-83
2023/03/17 06:31:12;;;;;;;1.00;1.00;;;;;;;0.98;60.99;99882.06;4977790;28;20054;-82
2023/03/17 06:33:39;;;;;;;1.00;1.00;;;;;;;1.07;60.93;99891.75;4980193;28;20738;-83
2023/03/17 06:36:07;;;;;;;1.00;1.00;;;;;;;1.16;60.81;99893.41;4949678;28;20057;-82
2023/03/17 06:38:34;;;;;;;0.80;0.80;;;;;;;1.23;60.43;99885.63;4972728;28;20122;-81
2023/03/17 06:41:02;;;;;;;0.88;0.88;;;;;;;1.25;60.17;99894.28;4979842;28;20098;-81
2023/03/17 06:43:30;;;;;;;0.90;0.90;;;;;;;1.30;59.67;99903.44;4952431;28;20052;-83
2023/03/17 06:45:57;;;;;;;0.80;0.80;;;;;;;1.34;59.82;99903.94;4985394;28;20042;-79
2023/03/17 06:48:27;;;;;;;0.80;0.80;;;;;;;1.36;59.22;99912.59;4978244;28;20058;-81
2023/03/17 06:50:54;;;;;;;0.90;0.90;;;;;;;1.28;59.26;99905.41;4974632;28;20061;-82
2023/03/17 06:53:21;;;;;;;0.90;0.90;;;;;;;1.39;58.99;99906.09;4979171;28;20055;-82
2023/03/17 06:55:48;;;;;;;0.90;0.90;;;;;;;1.38;58.59;99905.28;4969196;28;20845;-81
2023/03/17 06:58:15;;;;;;;0.90;0.90;;;;;;;1.46;58.58;99915.94;4980043;28;20588;-82
2023/03/17 07:00:46;;;;;;;0.80;0.80;;;;;;;1.55;58.19;99914.13;4981087;28;20049;-81
2023/03/17 07:03:13;;;;;;;0.90;0.90;;;;;;;1.67;58.08;99915.50;4987057;28;20074;-83
2023/03/17 07:05:41;;;;;;;0.90;0.90;;;;;;;1.77;57.74;99922.47;4980914;28;20053;-81
2023/03/17 07:08:08;;;;;;;1.00;1.00;;;;;;;1.88;57.73;99930.13;4990174;28;20054;-81
2023/03/17 07:10:35;;;;;;;0.90;0.90;;;;;;;1.93;56.85;99933.13;4988057;28;20077;-80
2023/03/17 07:13:04;;;;;;;0.73;0.73;;;;;;;1.86;56.28;99932.13;4988070;28;20092;-80
2023/03/17 07:15:33;;;;;;;0.90;0.90;;;;;;;1.94;57.06;99935.63;4984814;28;20104;-81
2023/03/17 07:18:01;;;;;;;0.93;0.93;;;;;;;2.05;56.83;99939.81;4990380;28;20255;-83
2023/03/17 07:20:28;;;;;;;1.00;1.00;;;;;;;2.09;56.85;99941.13;4990502;28;20505;-80
2023/03/17 07:22:56;;;;;;;0.93;0.93;;;;;;;2.12;56.14;99935.44;4989620;28;20078;-80
2023/03/17 07:25:23;;;;;;;0.90;0.90;;;;;;;2.24;55.95;99941.28;4954487;28;20043;-80
2023/03/17 07:27:50;;;;;;;1.00;1.00;;;;;;;2.38;55.91;99947.75;4990373;28;20047;-79
2023/03/17 07:30:18;;;;;;;0.82;0.82;;;;;;;2.56;55.53;99947.56;4990400;28;20112;-81
2023/03/17 07:32:46;;;;;;;0.93;0.93;;;;;;;2.74;55.10;99947.38;4969234;28;20682;-80
2023/03/17 07:35:14;;;;;;;0.90;0.90;;;;;;;2.82;54.64;99948.16;4990092;28;20050;-81
2023/03/17 07:37:44;;;;;;;0.90;0.90;;;;;;;2.93;54.09;99941.63;4989148;28;20054;-81
2023/03/17 07:40:11;;;;;;;1.00;1.00;;;;;;;2.95;53.98;99949.47;4975172;28;20420;-82
2023/03/17 07:42:38;;;;;;;0.95;0.95;;;;;;;2.88;53.46;99946.63;4981329;28;20513;-81
2023/03/17 07:45:06;;;;;;;0.90;0.90;;;;;;;2.86;53.75;99950.47;4990117;28;20055;-81
2023/03/17 07:47:33;;;;;;;0.90;0.90;;;;;;;2.98;53.76;99954.44;4971030;28;20057;-82
2023/03/17 07:50:02;;;;;;;1.00;1.00;;;;;;;2.98;53.27;99944.59;4983586;28;20141;-83
2023/03/17 07:52:29;;;;;;;1.00;1.00;;;;;;;2.96;53.02;99943.97;4982740;28;20106;-84
2023/03/17 07:54:57;;;;;;;1.00;1.00;;;;;;;3.09;52.95;99940.75;4970308;28;20047;-83
2023/03/17 07:57:24;;;;;;;1.00;1.00;;;;;;;3.10;52.63;99952.25;4979614;28;20050;-81
2023/03/17 07:59:51;;;;;;;0.90;0.90;;;;;;;3.11;52.32;99957.38;4985898;28;20100;-80
2023/03/17 08:02:18;;;;;;;1.00;1.00;;;;;;;3.21;52.07;99965.19;4965465;28;20138;-80
2023/03/17 08:04:46;;;;;;;0.93;0.93;;;;;;;3.37;51.85;99981.13;4983788;28;20528;-81
2023/03/17 08:07:14;;;;;;;0.95;0.95;;;;;;;3.45;51.62;99973.09;4984385;28;20047;-82
2023/03/17 08:09:41;;;;;;;1.00;1.00;;;;;;;3.63;50.93;99985.34;4965856;28;20054;-81
2023/03/17 08:12:10;;;;;;;1.10;1.10;;;;;;;3.70;50.88;99980.97;4982070;28;20082;-83
2023/03/17 08:14:37;;;;;;;1.10;1.10;;;;;;;4.15;49.90;99994.50;4976684;28;20053;-82
2023/03/17 08:17:05;;;;;;;1.00;1.00;;;;;;;4.82;48.81;99999.13;4980454;28;20050;-81
2023/03/17 08:19:32;;;;;;;1.10;1.10;;;;;;;5.26;47.53;100012.47;4984480;28;20057;-81
2023/03/17 08:22:00;;;;;;;1.00;1.00;;;;;;;5.48;46.84;100009.91;4968130;28;20168;-81
2023/03/17 08:24:27;;;;;;;1.10;1.10;;;;;;;5.31;45.96;100009.25;4992931;28;20052;-82
2023/03/17 08:26:54;;;;;;;1.00;1.00;;;;;;;5.45;46.00;100016.47;4989857;28;20065;-82
2023/03/17 08:29:21;;;;;;;0.90;0.90;;;;;;;5.62;45.80;100017.06;5000615;28;20517;-83
2023/03/17 08:31:48;;;;;;;0.90;0.90;;;;;;;5.41;46.07;100018.66;5001338;28;20060;-82
2023/03/17 08:34:15;;;;;;;0.90;0.90;;;;;;;5.14;45.80;100022.00;4993003;28;20050;-84
2023/03/17 08:36:43;;;;;;;1.00;1.00;;;;;;;4.98;45.71;100023.00;4992407;28;20525;-82
2023/03/17 08:39:10;;;;;;;1.00;1.00;;;;;;;5.17;45.03;100030.50;4974944;28;20050;-82
2023/03/17 08:41:37;;;;;;;0.90;0.90;;;;;;;5.01;45.91;100027.97;4992350;28;20062;-82
2023/03/17 08:44:04;;;;;;;1.00;1.00;;;;;;;5.14;45.93;100020.16;4992515;28;20058;-83
2023/03/17 08:46:32;;;;;;;0.90;0.90;;;;;;;5.30;45.52;100023.66;4992043;28;20050;-82
2023/03/17 08:48:59;;;;;;;0.90;0.90;;;;;;;5.26;45.83;100025.03;4992046;28;20096;-84
2023/03/17 08:51:33;;;;;;;0.90;0.90;;;;;;;5.40;45.19;100032.25;4992546;28;20061;-83
2023/03/17 08:54:01;;;;;;;0.88;0.88;;;;;;;5.58;44.75;100032.69;4974719;28;20057;-83
2023/03/17 08:56:28;;;;;;;0.90;0.90;;;;;;;5.63;44.75;100038.31;4992033;28;20046;-82
2023/03/17 08:58:55;;;;;;;0.90;0.90;;;;;;;5.89;44.25;100044.16;4992042;28;20458;-84
2023/03/17 09:01:23;;;;;;;0.90;0.90;;;;;;;6.02;43.92;100045.16;4992175;28;20088;-83
2023/03/17 09:03:53;;;;;;;0.93;0.93;;;;;;;5.94;43.73;100049.81;4974396;28;20054;-82
2023/03/17 09:06:22;;;;;;;0.90;0.90;;;;;;;5.90;42.98;100056.53;4975294;28;20058;-83
2023/03/17 09:08:54;;;;;;;1.23;1.20;;;;;;;5.99;42.92;100053.59;4991703;28;20162;-82
2023/03/17 09:11:24;;;;;;;0.90;0.90;;;;;;;7.06;41.09;100054.56;4991894;28;20442;-82
2023/03/17 09:13:52;;;;;;;1.00;1.00;;;;;;;7.22;41.08;100059.63;4973913;28;20576;-82
2023/03/17 09:16:21;;;;;;;1.00;1.00;;;;;;;7.46;40.68;100055.63;4974182;28;20517;-83
2023/03/17 09:18:49;;;;;;;1.00;1.00;;;;;;;8.70;39.10;100053.75;4991268;28;20057;-83
2023/03/17 09:21:16;;;;;;;1.10;1.10;;;;;;;9.07;38.12;100055.81;4992349;28;20054;-82
2023/03/17 09:23:43;;;;;;;1.00;1.00;;;;;;;9.30;37.14;100043.75;4994357;28;20456;-82
2023/03/17 09:26:11;;;;;;;1.10;1.10;;;;;;;9.27;37.10;100044.19;4991218;28;20050;-82
2023/03/17 09:28:38;;;;;;;1.10;1.10;;;;;;;9.60;36.34;100041.38;4957808;28;20057;-83
2023/03/17 09:31:10;;;;;;;1.10;1.10;;;;;;;9.92;35.68;100047.66;4991310;28;20058;-82
2023/03/17 09:33:39;;;;;;;1.00;1.00;;;;;;;10.29;34.78;100049.78;4991413;28;20050;-83
2023/03/17 09:36:10;;;;;;;1.10;1.10;;;;;;;10.66;34.46;100045.38;4989165;28;20062;-81
2023/03/17 09:38:38;;;;;;;1.00;1.00;;;;;;;10.93;33.67;100055.97;4991161;28;20443;-82
2023/03/17 09:41:39;;;;;;;1.08;1.08;;;;;;;10.55;33.48;100057.69;4991065;28;20054;-82
2023/03/17 09:44:29;;;;;;;1.00;1.00;;;;;;;10.58;33.81;100073.47;4990511;28;20136;-81
2023/03/17 09:47:17;;;;;;;1.10;1.10;;;;;;;11.11;32.28;100065.97;4989579;28;20081;-84
2023/03/17 09:49:49;;;;;;;1.10;1.10;;;;;;;10.98;32.18;100067.75;4990358;28;20064;-83
2023/03/17 09:52:19;;;;;;;1.10;1.10;;;;;;;11.11;31.13;100069.50;4990189;28;20425;-83
2023/03/17 09:54:48;;;;;;;1.00;1.00;;;;;;;11.20;31.09;100072.75;4990865;28;20137;-84
2023/03/17 09:57:28;;;;;;;1.08;1.08;;;;;;;11.46;30.27;100074.38;4990681;28;20644;-83
2023/03/17 10:00:05;;;;;;;1.10;1.10;;;;;;;11.92;29.66;100081.13;4990668;28;20046;-83
2023/03/17 10:02:38;;;;;;;1.00;1.00;;;;;;;11.80;29.92;100074.81;4990670;28;20057;-82
2023/03/17 10:05:33;;;;;;;1.00;1.00;;;;;;;12.29;30.31;100083.78;4991018;28;20584;-83
2023/03/17 10:08:04;;;;;;;1.00;1.00;;;;;;;12.86;29.17;100084.16;4987067;28;20046;-83
2023/03/17 10:10:48;;;;;;;0.80;0.80;;;;;;;12.34;29.71;100086.63;4974856;28;20042;-83
2023/03/17 10:13:54;;;;;;;0.90;0.90;;;;;;;11.36;30.57;100095.66;4974007;28;20524;-84
2023/03/17 10:16:31;;;;;;;1.00;1.00;;;;;;;11.56;29.87;100092.78;4991131;28;20060;-83
2023/03/17 10:19:04;;;;;;;1.00;1.00;;;;;;;12.60;28.54;100085.41;4941249;28;20864;-84
2023/03/17 10:21:33;;;;;;;1.00;1.00;;;;;;;12.37;28.83;100091.59;4974186;28;20050;-83
2023/03/17 10:24:02;;;;;;;1.08;1.08;;;;;;;12.40;27.88;100098.44;4990303;28;20050;-83
2023/03/17 10:26:40;;;;;;;1.00;1.00;;;;;;;12.60;28.04;100103.56;4957687;28;20057;-82
2023/03/17 10:29:13;;;;;;;1.10;1.10;;;;;;;13.37;27.74;100098.19;4982614;28;20046;-84
2023/03/17 10:31:41;;;;;;;1.00;1.00;;;;;;;13.94;26.68;100097.50;4989195;28;20494;-82
2023/03/17 10:34:16;;;;;;;1.00;1.00;;;;;;;13.81;26.83;100088.56;4990806;28;20073;-83
2023/03/17 10:36:50;;;;;;;1.02;1.02;;;;;;;13.21;26.43;100102.34;4973255;28;20089;-82
2023/03/17 10:39:19;;;;;;;1.10;1.10;;;;;;;13.07;26.82;100111.78;4991188;28;20054;-83
2023/03/17 10:41:54;;;;;;;1.00;1.00;;;;;;;13.15;26.25;100103.31;4990820;28;20057;-84
2023/03/17 10:45:02;;;;;;;1.10;1.10;;;;;;;13.76;26.01;100112.03;4994621;28;20145;-84
2023/03/17 10:47:34;;;;;;;1.08;1.08;;;;;;;14.09;24.96;100108.66;4898949;29;20104;-82
2023/03/17 10:50:21;;;;;;;1.00;1.00;;;;;;;14.28;24.20;100112.84;4883519;29;20178;-85
2023/03/17 10:53:00;;;;;;;1.00;1.00;;;;;;;14.34;22.84;100105.63;4914897;29;20058;-84
2023/03/17 10:55:33;;;;;;;0.93;0.93;;;;;;;13.90;22.93;100109.88;4883641;29;20163;-83
2023/03/17 10:58:22;;;;;;;1.00;1.00;;;;;;;14.09;21.69;100116.81;4899301;29;20618;-83
2023/03/17 11:01:28;;;;;;;1.00;1.00;;;;;;;13.56;21.35;100117.84;4905976;29;20142;-82
2023/03/17 11:03:56;;;;;;;0.90;0.90;;;;;;;13.68;20.34;100099.66;4914183;29;20055;-83
2023/03/17 11:06:41;;;;;;;1.00;1.00;;;;;;;13.71;20.59;100110.03;4914879;29;20085;-81
2023/03/17 11:09:12;;;;;;;0.90;0.90;;;;;;;13.59;20.86;100123.59;4914432;29;20063;-84
2023/03/17 11:11:46;;;;;;;1.10;1.10;;;;;;;14.18;21.20;100126.22;4896225;29;20451;-82
2023/03/17 11:14:17;;;;;;;0.95;0.95;;;;;;;14.30;19.72;100127.00;4898465;29;20056;-83
2023/03/17 11:16:58;;;;;;;1.00;1.00;;;;;;;14.40;19.76;100136.41;4913868;29;20052;-83
2023/03/17 11:19:57;;;;;;;1.00;1.00;;;;;;;14.58;19.73;100140.84;4914653;29;20082;-82
2023/03/17 11:22:34;;;;;;;1.10;1.10;;;;;;;14.86;19.46;100129.97;4876445;29;20060;-80
2023/03/17 11:25:22;;;;;;;1.00;1.00;;;;;;;14.34;20.65;100148.25;4945416;28;20057;-81
2023/03/17 11:28:05;;;;;;;1.08;1.08;;;;;;;14.82;20.89;100144.28;4972597;28;20529;-83
2023/03/17 11:30:36;;;;;;;1.00;1.00;;;;;;;14.94;20.97;100143.16;4967118;28;20096;-81
2023/03/17 11:33:04;;;;;;;1.00;1.00;;;;;;;15.24;20.97;100150.16;4975577;28;20050;-84
2023/03/17 11:35:45;;;;;;;1.00;1.00;;;;;;;15.55;20.13;100137.88;4986688;28;20050;-83
2023/03/17 11:38:19;;;;;;;1.00;1.00;;;;;;;15.93;20.27;100147.13;4982476;28;20046;-83
2023/03/17 11:40:46;;;;;;;1.00;1.00;;;;;;;15.49;20.04;100144.28;4973691;28;20055;-82
2023/03/17 11:43:42;;;;;;;0.90;0.90;;;;;;;15.30;19.90;100145.66;4985987;28;20074;-81
2023/03/17 11:46:23;;;;;;;0.98;0.98;;;;;;;15.22;19.97;100146.88;4990332;28;20050;-81
2023/03/17 11:49:05;;;;;;;0.90;0.90;;;;;;;15.31;20.02;100141.84;4983804;28;20055;-83
2023/03/17 11:52:02;;;;;;;0.90;0.90;;;;;;;15.35;20.03;100141.09;4972387;28;20050;-82